Shanesville, Ohio
Current Conditions -  °F | °C
As of 4:53 PM on Friday 24 Oct 2014 (Local Time) from KPHD Reporting Station
Clear Clear  
Wind Chill: 63°   Ceiling: Unl
Heat Index: 63°   Visibility: 10mi
Dew Point: 41°   Wind: 3mph
Humidity: 45%   Direction: 310°NW
Pressure: 30.01"   Gusts: NA
Location:  40.5178°N, 81.673°W
Report Text: KPHD 242053Z AUTO 31003KT 10SM CLR 17/05 A3001 RMK AO2 SLP164 T01720050 57020
Loading
Personal Weather Stations






























Interactive Weather Map
Tropical Storm Tracking
New forecast layout! Learn more

10-Day Weather Forecast

Advertisements
Track Severe Weather on mobile